Time;durP1;ratioP1;P1;durP2;ratioP2;P2;SDS_P1;SDS_P2;PMS_P1;PMS_P2;Temp;Humidity;BMP_temperature;BMP_pressure;BME280_temperature;BME280_humidity;BME280_pressure;Samples;Min_cycle;Max_cycle;Signal;HPM_P1;HPM_P2
2023/09/24 00:01:28;;;;;;;7.63;2.90;;;15.10;92.70;;;;;;5097151;28;20521;-57
2023/09/24 00:03:55;;;;;;;8.30;3.27;;;15.20;92.70;;;;;;5096596;28;20448;-57
2023/09/24 00:06:22;;;;;;;6.37;2.60;;;15.10;92.70;;;;;;5097170;28;20483;-57
2023/09/24 00:08:49;;;;;;;5.70;3.00;;;15.10;92.70;;;;;;5088283;28;20841;-57
2023/09/24 00:11:16;;;;;;;8.53;3.00;;;15.10;92.50;;;;;;5076357;28;20491;-57
2023/09/24 00:13:44;;;;;;;5.27;2.97;;;15.10;92.50;;;;;;5076457;28;20441;-57
2023/09/24 00:16:11;;;;;;;9.37;3.10;;;15.10;92.40;;;;;;5076727;28;20437;-57
2023/09/24 00:18:38;;;;;;;3.47;2.00;;;15.10;92.30;;;;;;5092938;28;20816;-57
2023/09/24 00:21:06;;;;;;;8.10;2.43;;;15.10;92.20;;;;;;5076293;28;20821;-57
2023/09/24 00:23:32;;;;;;;6.17;2.53;;;15.00;92.20;;;;;;5076322;28;20437;-57
2023/09/24 00:25:59;;;;;;;5.97;2.50;;;15.00;92.40;;;;;;5076417;28;20429;-57
2023/09/24 00:28:26;;;;;;;7.13;2.57;;;15.00;92.50;;;;;;5076248;28;20492;-58
2023/09/24 00:30:55;;;;;;;4.17;2.20;;;15.00;92.40;;;;;;5096416;28;20467;-57
2023/09/24 00:33:23;;;;;;;6.27;2.40;;;15.00;92.40;;;;;;5096502;28;20444;-57
2023/09/24 00:35:50;;;;;;;4.50;2.20;;;15.00;92.40;;;;;;5096451;28;20443;-57
2023/09/24 00:38:18;;;;;;;8.37;3.10;;;15.00;92.50;;;;;;5096501;28;20444;-57
2023/09/24 00:40:44;;;;;;;3.63;1.97;;;15.00;92.60;;;;;;5095307;28;20566;-57
2023/09/24 00:43:31;;;;;;;6.33;3.07;;;15.00;92.50;;;;;;5096039;28;20863;-57
2023/09/24 00:46:00;;;;;;;8.65;2.80;;;15.00;92.40;;;;;;5094924;28;20440;-57
2023/09/24 00:48:30;;;;;;;7.17;3.37;;;15.00;92.30;;;;;;5096172;28;20233;-57
2023/09/24 00:50:58;;;;;;;4.47;2.60;;;14.90;92.10;;;;;;5096237;28;20513;-57
2023/09/24 00:53:26;;;;;;;11.63;2.57;;;14.90;92.10;;;;;;5096466;28;20448;-57
2023/09/24 00:55:54;;;;;;;3.33;2.27;;;14.80;92.00;;;;;;5082401;28;21028;-57
2023/09/24 00:58:20;;;;;;;8.63;3.10;;;14.80;91.90;;;;;;5077219;28;20471;-57
2023/09/24 01:00:48;;;;;;;3.10;2.23;;;14.80;91.90;;;;;;5077163;28;21044;-57
2023/09/24 01:03:18;;;;;;;5.60;2.40;;;14.70;91.90;;;;;;5076502;28;20472;-57
2023/09/24 01:05:49;;;;;;;4.37;2.37;;;14.70;91.90;;;;;;5085459;28;20482;-57
2023/09/24 01:08:17;;;;;;;6.33;2.50;;;14.60;92.00;;;;;;5097348;28;20467;-57
2023/09/24 01:10:47;;;;;;;3.97;1.70;;;14.60;92.00;;;;;;5096806;28;20468;-57
2023/09/24 01:13:15;;;;;;;3.60;2.50;;;14.60;92.20;;;;;;5095575;28;20564;-57
2023/09/24 01:15:42;;;;;;;6.80;2.20;;;14.60;92.20;;;;;;5090967;28;20451;-57
2023/09/24 01:18:09;;;;;;;4.77;2.20;;;14.50;92.20;;;;;;5075294;28;20951;-57
2023/09/24 01:20:40;;;;;;;5.43;2.60;;;14.50;92.20;;;;;;5075079;28;20838;-57
2023/09/24 01:23:09;;;;;;;5.27;2.07;;;14.50;92.20;;;;;;5075397;28;20436;-57
2023/09/24 01:25:36;;;;;;;4.70;2.30;;;14.50;92.10;;;;;;5078627;28;20935;-57
2023/09/24 01:28:05;;;;;;;9.47;3.20;;;14.40;92.10;;;;;;5095982;28;20476;-57
2023/09/24 01:30:33;;;;;;;3.53;2.93;;;14.40;92.10;;;;;;5095530;28;20466;-57
2023/09/24 01:32:59;;;;;;;3.83;2.40;;;14.40;92.20;;;;;;5095494;28;20443;-57
2023/09/24 01:35:28;;;;;;;8.43;2.53;;;14.40;92.20;;;;;;5095296;28;20444;-57
2023/09/24 01:37:56;;;;;;;6.17;2.13;;;14.30;92.10;;;;;;5075331;28;20447;-57
2023/09/24 01:40:25;;;;;;;4.33;2.50;;;14.30;92.10;;;;;;5074909;28;20889;-57
2023/09/24 01:42:55;;;;;;;7.50;2.23;;;14.30;92.10;;;;;;5075343;28;20480;-57
2023/09/24 01:45:22;;;;;;;2.73;2.10;;;14.30;92.10;;;;;;5087632;28;20476;-57
2023/09/24 01:47:50;;;;;;;4.27;1.93;;;14.30;92.10;;;;;;5080607;28;20504;-57
2023/09/24 01:50:17;;;;;;;3.50;2.70;;;14.20;92.10;;;;;;5074876;28;20819;-57
2023/09/24 01:52:45;;;;;;;6.87;2.13;;;14.20;92.10;;;;;;5074765;28;20981;-57
2023/09/24 01:55:15;;;;;;;9.90;2.90;;;14.20;92.10;;;;;;5074977;28;20449;-57
2023/09/24 01:57:43;;;;;;;5.00;2.50;;;14.20;92.10;;;;;;5075496;28;20449;-57
2023/09/24 02:00:23;;;;;;;5.43;2.13;;;14.20;92.10;;;;;;5074680;28;21008;-57
2023/09/24 02:02:50;;;;;;;4.00;2.73;;;14.20;92.00;;;;;;5075304;28;20465;-57
2023/09/24 02:05:19;;;;;;;7.80;2.53;;;14.20;91.90;;;;;;5074853;28;20444;-57
2023/09/24 02:07:46;;;;;;;4.40;2.80;;;14.20;92.10;;;;;;5083443;28;20870;-57
2023/09/24 02:10:13;;;;;;;4.53;2.40;;;14.10;92.00;;;;;;5094766;28;20470;-57
2023/09/24 02:12:39;;;;;;;3.43;1.80;;;14.10;92.30;;;;;;5095027;28;20496;-57
2023/09/24 02:15:12;;;;;;;5.47;1.93;;;14.20;92.40;;;;;;5094299;28;20440;-57
2023/09/24 02:17:41;;;;;;;6.70;2.60;;;14.20;92.50;;;;;;5090134;28;20194;-57
2023/09/24 02:20:14;;;;;;;5.50;2.53;;;14.20;92.70;;;;;;5074756;28;20465;-57
2023/09/24 02:22:41;;;;;;;10.43;2.23;;;14.20;92.80;;;;;;5074858;28;20431;-57
2023/09/24 02:25:12;;;;;;;4.30;2.40;;;14.10;92.80;;;;;;5074800;28;20954;-57
2023/09/24 02:27:39;;;;;;;12.03;2.73;;;14.10;92.90;;;;;;5075892;28;20468;-57
2023/09/24 02:30:10;;;;;;;6.90;2.40;;;14.20;92.90;;;;;;5095845;28;20475;-57
2023/09/24 02:32:37;;;;;;;6.47;2.43;;;14.10;92.90;;;;;;5095224;28;20534;-57
2023/09/24 02:35:04;;;;;;;7.97;2.47;;;14.20;92.90;;;;;;5095351;28;20513;-57
2023/09/24 02:37:31;;;;;;;4.47;2.00;;;14.20;92.80;;;;;;5095333;28;20443;-57
2023/09/24 02:39:57;;;;;;;13.03;3.50;;;14.20;92.80;;;;;;5077171;28;20464;-57
2023/09/24 02:42:25;;;;;;;6.87;2.50;;;14.10;92.70;;;;;;5074891;28;20456;-57
2023/09/24 02:44:52;;;;;;;9.63;2.00;;;14.10;92.70;;;;;;5073518;28;20445;-57
2023/09/24 02:47:20;;;;;;;10.30;2.30;;;14.10;92.70;;;;;;5074494;28;20484;-57
2023/09/24 02:49:48;;;;;;;9.83;3.60;;;14.10;93.00;;;;;;5084612;28;20887;-57
2023/09/24 02:52:15;;;;;;;8.20;2.13;;;14.10;93.30;;;;;;5077437;28;20456;-57
2023/09/24 02:54:42;;;;;;;11.67;2.60;;;14.10;93.40;;;;;;5073595;28;20485;-56
2023/09/24 02:57:09;;;;;;;9.13;2.80;;;14.00;93.50;;;;;;5073410;28;20447;-57
2023/09/24 02:59:36;;;;;;;7.07;2.60;;;14.00;93.60;;;;;;5079493;28;20554;-57
2023/09/24 03:02:03;;;;;;;6.00;2.60;;;14.10;93.60;;;;;;5093776;28;20448;-57
2023/09/24 03:04:31;;;;;;;8.50;2.20;;;14.00;93.40;;;;;;5093825;28;20462;-57
2023/09/24 03:06:57;;;;;;;8.53;1.80;;;14.00;93.50;;;;;;5093350;28;20553;-57
2023/09/24 03:09:24;;;;;;;7.27;2.20;;;13.90;93.60;;;;;;5092015;28;20483;-57
2023/09/24 03:11:51;;;;;;;4.57;2.07;;;13.90;93.80;;;;;;5073407;28;20441;-57
2023/09/24 03:14:18;;;;;;;9.60;1.90;;;13.90;93.80;;;;;;5073201;28;20451;-57
2023/09/24 03:16:45;;;;;;;9.53;2.60;;;13.90;93.80;;;;;;5074203;28;20455;-57
2023/09/24 03:19:12;;;;;;;6.70;2.53;;;13.90;93.60;;;;;;5079373;28;20468;-57
2023/09/24 03:21:40;;;;;;;11.30;1.83;;;13.90;93.50;;;;;;5074289;28;20955;-57
2023/09/24 03:24:10;;;;;;;10.20;2.33;;;13.90;93.60;;;;;;5072951;28;20444;-57
2023/09/24 03:26:37;;;;;;;10.00;2.00;;;13.90;93.70;;;;;;5074104;28;20463;-57
2023/09/24 03:29:04;;;;;;;10.60;2.83;;;13.80;93.40;;;;;;5078960;28;20488;-57
2023/09/24 03:31:32;;;;;;;6.90;1.60;;;13.80;93.20;;;;;;5079326;28;20444;-57
2023/09/24 03:33:59;;;;;;;6.93;2.03;;;13.80;93.10;;;;;;5077317;28;20444;-57
2023/09/24 03:36:26;;;;;;;7.50;2.20;;;13.80;93.00;;;;;;5077304;28;20497;-56
2023/09/24 03:38:54;;;;;;;4.00;2.23;;;13.70;92.80;;;;;;5077227;28;20440;-57
2023/09/24 03:41:21;;;;;;;11.20;2.33;;;13.70;92.80;;;;;;5094453;28;20451;-56
2023/09/24 03:43:48;;;;;;;6.63;2.40;;;13.70;92.70;;;;;;5097461;28;20475;-56
2023/09/24 03:46:16;;;;;;;6.13;2.00;;;13.60;92.60;;;;;;5097460;28;20459;-57
2023/09/24 03:48:43;;;;;;;6.13;1.97;;;13.60;92.60;;;;;;5096868;28;20479;-57
2023/09/24 03:51:10;;;;;;;6.27;2.20;;;13.60;92.70;;;;;;5084268;28;21011;-57
2023/09/24 03:53:38;;;;;;;3.63;2.13;;;13.50;92.70;;;;;;5094009;28;20444;-56
2023/09/24 03:56:07;;;;;;;8.80;2.60;;;13.50;92.80;;;;;;5097345;28;20448;-57
2023/09/24 03:58:37;;;;;;;8.23;2.37;;;13.50;92.80;;;;;;5097131;28;20488;-56
2023/09/24 04:01:10;;;;;;;9.43;2.90;;;13.50;92.80;;;;;;5088738;28;20440;-57
2023/09/24 04:03:37;;;;;;;6.00;2.07;;;13.50;92.70;;;;;;5076578;28;20574;-56
2023/09/24 04:06:10;;;;;;;5.37;2.53;;;13.50;92.70;;;;;;5076771;28;20816;-57
2023/09/24 04:08:37;;;;;;;5.90;2.50;;;13.40;92.60;;;;;;5076489;28;20467;-56
2023/09/24 04:11:12;;;;;;;10.20;2.47;;;13.40;92.70;;;;;;5080682;28;20446;-57
2023/09/24 04:13:40;;;;;;;9.40;2.77;;;13.40;92.80;;;;;;5097602;28;20430;-56
2023/09/24 04:16:09;;;;;;;11.03;2.50;;;13.40;93.20;;;;;;5099449;28;20454;-57
2023/09/24 04:18:36;;;;;;;8.13;2.90;;;13.40;93.40;;;;;;5098554;28;20439;-57
2023/09/24 04:21:02;;;;;;;10.80;2.67;;;13.40;93.20;;;;;;5096888;28;20451;-57
2023/09/24 04:23:29;;;;;;;7.90;3.00;;;13.40;93.20;;;;;;5076618;28;20448;-56
2023/09/24 04:25:56;;;;;;;9.60;2.87;;;13.40;93.20;;;;;;5076666;28;20802;-56
2023/09/24 04:28:24;;;;;;;6.20;2.70;;;13.40;93.10;;;;;;5076603;28;20479;-56
2023/09/24 04:30:50;;;;;;;6.60;2.27;;;13.40;93.00;;;;;;5076203;28;20981;-56
2023/09/24 04:33:18;;;;;;;6.03;2.50;;;13.30;92.90;;;;;;5090837;28;20931;-57
2023/09/24 04:35:45;;;;;;;6.90;3.43;;;13.30;92.90;;;;;;5083461;28;20479;-57
2023/09/24 04:38:11;;;;;;;10.30;2.37;;;13.40;92.90;;;;;;5095832;28;20444;-56
2023/09/24 04:40:38;;;;;;;4.33;2.90;;;13.30;92.80;;;;;;5076431;28;20464;-56
2023/09/24 04:43:05;;;;;;;6.00;2.63;;;13.30;92.70;;;;;;5086245;28;20800;-57
2023/09/24 04:45:35;;;;;;;6.60;2.27;;;13.30;92.60;;;;;;5077704;28;20441;-56
2023/09/24 04:48:02;;;;;;;9.20;2.50;;;13.20;92.60;;;;;;5081431;28;20482;-57
2023/09/24 04:50:29;;;;;;;6.20;2.70;;;13.20;92.60;;;;;;5096145;28;20464;-56
2023/09/24 04:52:55;;;;;;;7.47;2.90;;;13.20;92.60;;;;;;5091392;28;20455;-57
2023/09/24 04:55:22;;;;;;;6.97;2.60;;;13.20;92.50;;;;;;5078288;28;20491;-56
2023/09/24 04:57:49;;;;;;;5.90;2.37;;;13.20;92.50;;;;;;5077866;28;20876;-57
2023/09/24 05:00:16;;;;;;;4.87;2.70;;;13.20;92.50;;;;;;5089416;28;20460;-56
2023/09/24 05:02:44;;;;;;;4.00;2.50;;;13.10;92.40;;;;;;5083606;28;20437;-57
2023/09/24 05:05:11;;;;;;;8.30;3.23;;;13.10;92.40;;;;;;5075589;28;20816;-57
2023/09/24 05:07:38;;;;;;;5.93;3.07;;;13.10;92.30;;;;;;5091191;28;20440;-56
2023/09/24 05:10:06;;;;;;;5.23;2.47;;;13.00;92.40;;;;;;5095798;28;20575;-56
2023/09/24 05:12:33;;;;;;;7.40;3.70;;;13.00;92.30;;;;;;5095751;28;20515;-56
2023/09/24 05:14:59;;;;;;;3.13;2.30;;;13.00;92.30;;;;;;5095720;28;20451;-56
2023/09/24 05:17:26;;;;;;;6.63;2.80;;;13.00;92.30;;;;;;5094373;28;20455;-56
2023/09/24 05:19:54;;;;;;;6.70;2.17;;;13.00;92.40;;;;;;5075365;28;20526;-56
2023/09/24 05:22:23;;;;;;;5.73;3.10;;;12.90;92.40;;;;;;5075323;28;20445;-56
2023/09/24 05:24:49;;;;;;;2.63;2.43;;;12.90;92.40;;;;;;5075162;28;20456;-56
2023/09/24 05:27:17;;;;;;;4.50;2.47;;;12.90;92.50;;;;;;5074929;28;20938;-56
2023/09/24 05:29:46;;;;;;;5.60;2.73;;;12.90;92.50;;;;;;5074836;28;20491;-56
2023/09/24 05:32:13;;;;;;;4.03;2.57;;;12.90;92.40;;;;;;5074822;28;20950;-56
2023/09/24 05:34:39;;;;;;;3.60;2.77;;;12.90;92.40;;;;;;5074828;28;20814;-56
2023/09/24 05:37:08;;;;;;;8.63;2.37;;;12.90;92.40;;;;;;5075046;28;20452;-56
2023/09/24 05:39:35;;;;;;;3.13;1.87;;;12.80;92.50;;;;;;5074607;28;21080;-56
2023/09/24 05:42:03;;;;;;;5.50;2.33;;;12.90;92.70;;;;;;5074565;28;20966;-56
2023/09/24 05:44:32;;;;;;;4.73;2.60;;;12.90;93.00;;;;;;5081435;28;21021;-56
2023/09/24 05:46:59;;;;;;;5.23;2.30;;;13.00;93.20;;;;;;5081243;28;20449;-56
2023/09/24 05:49:26;;;;;;;6.70;2.20;;;12.90;93.20;;;;;;5074429;28;20485;-56
2023/09/24 05:51:52;;;;;;;3.97;2.20;;;13.00;93.30;;;;;;5077394;28;20444;-56
2023/09/24 05:54:21;;;;;;;3.40;2.03;;;12.90;93.20;;;;;;5090965;28;20444;-56
2023/09/24 05:56:47;;;;;;;3.60;2.20;;;13.00;93.30;;;;;;5074684;28;20459;-56
2023/09/24 05:59:14;;;;;;;4.03;2.40;;;13.00;93.20;;;;;;5082481;28;20456;-56
2023/09/24 06:01:42;;;;;;;6.30;2.60;;;12.90;93.10;;;;;;5078360;28;20475;-56
2023/09/24 06:04:09;;;;;;;7.30;2.33;;;13.00;93.20;;;;;;5088126;28;20509;-58
2023/09/24 06:06:36;;;;;;;6.27;2.67;;;12.90;93.10;;;;;;5092299;28;20448;-56
2023/09/24 06:09:08;;;;;;;4.47;1.93;;;13.00;93.60;;;;;;5092198;28;20918;-56
2023/09/24 06:11:37;;;;;;;4.10;1.83;;;13.00;93.30;;;;;;5094679;28;20447;-56
2023/09/24 06:14:08;;;;;;;6.10;2.50;;;13.00;93.40;;;;;;5081974;28;20490;-57
2023/09/24 06:16:35;;;;;;;6.87;2.43;;;13.00;93.50;;;;;;5073951;28;20487;-56
2023/09/24 06:19:01;;;;;;;3.00;2.00;;;13.00;93.50;;;;;;5073927;28;20469;-56
2023/09/24 06:21:28;;;;;;;2.77;2.00;;;13.10;93.70;;;;;;5073926;28;20452;-56
2023/09/24 06:23:55;;;;;;;4.37;1.90;;;13.10;93.90;;;;;;5073512;28;20461;-56
2023/09/24 06:26:22;;;;;;;3.40;1.80;;;13.20;94.20;;;;;;5073658;28;20961;-56
2023/09/24 06:28:50;;;;;;;2.70;1.77;;;13.20;94.40;;;;;;5073388;28;20484;-56
2023/09/24 06:31:17;;;;;;;6.40;2.50;;;13.30;94.60;;;;;;5072954;28;20962;-56
2023/09/24 06:33:43;;;;;;;4.10;2.10;;;13.30;94.70;;;;;;5073763;28;20453;-56
2023/09/24 06:36:10;;;;;;;4.67;3.17;;;13.30;94.90;;;;;;5073261;28;20452;-56
2023/09/24 06:38:37;;;;;;;4.47;2.80;;;13.40;95.10;;;;;;5073775;28;20871;-56
2023/09/24 06:41:04;;;;;;;6.13;2.77;;;13.50;95.20;;;;;;5073103;28;20531;-56
2023/09/24 06:43:31;;;;;;;7.20;2.70;;;13.50;95.10;;;;;;5074964;28;20456;-56
2023/09/24 06:46:03;;;;;;;3.93;2.80;;;13.50;95.20;;;;;;5092282;28;20449;-56
2023/09/24 06:48:30;;;;;;;3.33;2.53;;;13.50;95.20;;;;;;5074803;28;20522;-56
2023/09/24 06:50:56;;;;;;;6.50;2.20;;;13.60;95.40;;;;;;5090654;28;20492;-56
2023/09/24 06:53:23;;;;;;;4.63;2.70;;;13.60;95.50;;;;;;5082440;28;20454;-55
2023/09/24 06:55:50;;;;;;;3.73;2.33;;;13.60;95.60;;;;;;5079014;28;20894;-56
2023/09/24 06:58:17;;;;;;;2.80;2.60;;;13.70;95.70;;;;;;5073437;28;20437;-56
2023/09/24 07:00:43;;;;;;;2.90;2.20;;;13.70;95.80;;;;;;5073365;28;20473;-56
2023/09/24 07:03:11;;;;;;;4.70;2.97;;;13.80;95.90;;;;;;5074490;28;20449;-56
2023/09/24 07:05:38;;;;;;;4.33;3.47;;;13.90;96.00;;;;;;5073358;28;20449;-56
2023/09/24 07:08:05;;;;;;;6.13;2.70;;;14.00;96.00;;;;;;5073186;28;20452;-56
2023/09/24 07:10:32;;;;;;;3.70;2.10;;;14.10;96.00;;;;;;5073130;28;20849;-56
2023/09/24 07:12:59;;;;;;;3.77;2.33;;;14.20;95.90;;;;;;5073084;28;20448;-56
2023/09/24 07:15:26;;;;;;;3.10;2.47;;;14.30;95.70;;;;;;5073317;28;20471;-56
2023/09/24 07:17:53;;;;;;;4.80;2.23;;;14.40;95.50;;;;;;5073324;28;20448;-56
2023/09/24 07:20:21;;;;;;;3.20;2.33;;;14.50;95.40;;;;;;5074261;28;20465;-56
2023/09/24 07:22:48;;;;;;;5.43;2.80;;;14.60;95.30;;;;;;5087376;28;20530;-56
2023/09/24 07:25:15;;;;;;;6.33;2.70;;;14.80;95.10;;;;;;5075133;28;20467;-56
2023/09/24 07:27:41;;;;;;;6.13;2.73;;;14.90;95.00;;;;;;5075370;28;20444;-56
2023/09/24 07:30:09;;;;;;;5.43;2.40;;;14.90;94.70;;;;;;5075023;28;20516;-56
2023/09/24 07:32:37;;;;;;;5.10;2.17;;;15.10;94.70;;;;;;5082991;28;20444;-56
2023/09/24 07:35:04;;;;;;;3.33;2.37;;;15.20;94.60;;;;;;5086015;28;20460;-56
2023/09/24 07:37:32;;;;;;;4.60;2.33;;;15.30;94.60;;;;;;5073359;28;20946;-56
2023/09/24 07:39:59;;;;;;;2.87;2.20;;;15.40;94.50;;;;;;5077105;28;20472;-57
2023/09/24 07:42:26;;;;;;;3.27;2.10;;;15.50;94.10;;;;;;5085698;28;20444;-56
2023/09/24 07:44:52;;;;;;;4.17;2.20;;;15.60;93.90;;;;;;5077298;28;20828;-56
2023/09/24 07:47:19;;;;;;;6.97;3.53;;;15.70;93.50;;;;;;5093559;28;20456;-56
2023/09/24 07:49:46;;;;;;;6.10;2.73;;;15.70;93.20;;;;;;5085513;28;20500;-56
2023/09/24 07:52:14;;;;;;;6.40;3.43;;;15.80;92.90;;;;;;5073325;28;20452;-56
2023/09/24 07:54:42;;;;;;;5.93;3.40;;;15.80;92.90;;;;;;5073022;28;20505;-56
2023/09/24 07:57:09;;;;;;;8.40;3.40;;;15.80;92.90;;;;;;5073102;28;20444;-56
2023/09/24 07:59:35;;;;;;;11.00;3.13;;;15.90;93.10;;;;;;5073112;28;20473;-56
2023/09/24 08:02:02;;;;;;;6.97;3.33;;;16.00;93.10;;;;;;5076817;28;20455;-57
2023/09/24 08:04:29;;;;;;;6.80;2.30;;;16.10;93.00;;;;;;5085470;28;20860;-57
2023/09/24 08:06:55;;;;;;;4.03;2.30;;;16.20;92.90;;;;;;5079004;28;20475;-57
2023/09/24 08:09:22;;;;;;;7.20;2.50;;;16.30;92.80;;;;;;5093612;28;20483;-56
2023/09/24 08:11:50;;;;;;;6.07;2.73;;;16.40;92.50;;;;;;5093144;28;20444;-57
2023/09/24 08:14:17;;;;;;;4.90;2.43;;;16.40;92.30;;;;;;5095418;28;20443;-57
2023/09/24 08:16:44;;;;;;;8.60;2.17;;;16.50;92.10;;;;;;5078834;28;20452;-57
2023/09/24 08:19:11;;;;;;;5.30;3.30;;;16.50;91.80;;;;;;5078010;28;20468;-57
2023/09/24 08:21:38;;;;;;;5.93;2.30;;;16.60;91.70;;;;;;5090403;28;21121;-57
2023/09/24 08:24:05;;;;;;;4.60;2.33;;;16.70;91.30;;;;;;5090717;28;20456;-57
2023/09/24 08:26:33;;;;;;;3.97;2.00;;;16.70;91.30;;;;;;5076391;28;20444;-57
2023/09/24 08:29:05;;;;;;;2.90;2.00;;;16.90;91.40;;;;;;5091264;28;20499;-57
2023/09/24 08:31:32;;;;;;;2.90;2.00;;;17.00;91.10;;;;;;5075493;28;20436;-57
2023/09/24 08:33:59;;;;;;;6.03;2.70;;;17.00;90.80;;;;;;5075082;28;20488;-57
2023/09/24 08:36:26;;;;;;;10.70;3.67;;;17.10;91.00;;;;;;5075757;28;20444;-57
2023/09/24 08:38:53;;;;;;;6.80;3.10;;;17.20;90.00;;;;;;5075437;28;20916;-57
2023/09/24 08:41:19;;;;;;;6.40;3.57;;;17.20;89.60;;;;;;5076724;28;20453;-57
2023/09/24 08:43:47;;;;;;;6.53;2.47;;;17.30;89.50;;;;;;5076144;28;20452;-57
2023/09/24 08:46:16;;;;;;;8.70;2.83;;;17.30;88.90;;;;;;5076540;28;20445;-57
2023/09/24 08:48:43;;;;;;;4.93;2.93;;;17.40;87.80;;;;;;5076096;28;20445;-57
2023/09/24 08:51:10;;;;;;;5.87;2.63;;;17.30;87.30;;;;;;5076238;28;20483;-57
2023/09/24 08:53:37;;;;;;;6.10;2.30;;;17.30;87.50;;;;;;5075649;28;20480;-57
2023/09/24 08:56:05;;;;;;;3.93;2.30;;;17.30;87.00;;;;;;5076312;28;20445;-57
2023/09/24 08:58:31;;;;;;;8.80;2.27;;;17.30;86.90;;;;;;5076126;28;20996;-57
2023/09/24 09:00:58;;;;;;;5.53;2.40;;;17.40;87.90;;;;;;5076403;28;20464;-57
2023/09/24 09:03:27;;;;;;;6.80;1.77;;;17.50;87.30;;;;;;5076529;28;21142;-57
2023/09/24 09:05:54;;;;;;;5.00;2.60;;;17.60;87.00;;;;;;5094869;28;20451;-57
2023/09/24 09:08:21;;;;;;;5.67;2.80;;;17.70;86.50;;;;;;5097127;28;20518;-57
2023/09/24 09:10:50;;;;;;;4.27;1.60;;;17.90;86.60;;;;;;5095729;28;20484;-57
2023/09/24 09:13:18;;;;;;;3.07;2.03;;;18.00;84.90;;;;;;5092357;28;20506;-58
2023/09/24 09:15:46;;;;;;;3.30;1.40;;;18.20;84.50;;;;;;5093393;28;20548;-57
2023/09/24 09:18:23;;;;;;;1.40;1.27;;;18.40;83.20;;;;;;5095390;28;20961;-58
2023/09/24 09:20:58;;;;;;;2.47;1.13;;;18.50;81.40;;;;;;5089089;28;20817;-59
2023/09/24 09:23:33;;;;;;;3.03;1.27;;;18.60;80.70;;;;;;5081900;28;20526;-58
2023/09/24 09:25:59;;;;;;;2.87;1.23;;;18.70;80.60;;;;;;5075234;28;20482;-57
2023/09/24 09:28:28;;;;;;;3.43;0.90;;;18.80;78.50;;;;;;5075374;28;20468;-57
2023/09/24 09:30:59;;;;;;;1.70;1.00;;;18.90;78.30;;;;;;5074980;28;20481;-57
2023/09/24 09:33:27;;;;;;;4.10;1.23;;;19.00;78.50;;;;;;5076577;28;20806;-57
2023/09/24 09:35:57;;;;;;;4.17;1.80;;;19.20;77.80;;;;;;5095029;28;20498;-57
2023/09/24 09:38:25;;;;;;;2.00;1.20;;;19.40;76.90;;;;;;5095401;28;20424;-58
2023/09/24 09:40:55;;;;;;;3.10;1.33;;;19.60;75.50;;;;;;5095228;28;20475;-58
2023/09/24 09:43:25;;;;;;;1.53;0.90;;;19.80;75.10;;;;;;5095194;28;20439;-57
2023/09/24 09:45:53;;;;;;;2.23;0.87;;;20.10;74.40;;;;;;5074663;28;20448;-58
2023/09/24 09:48:28;;;;;;;2.40;1.10;;;20.50;72.70;;;;;;5074619;28;20445;-58
2023/09/24 09:50:59;;;;;;;4.37;0.80;;;20.90;69.70;;;;;;5074856;28;20502;-58
2023/09/24 09:53:30;;;;;;;2.23;1.13;;;21.20;67.40;;;;;;5074821;28;20467;-58
2023/09/24 09:55:58;;;;;;;1.90;1.10;;;21.50;65.10;;;;;;5074487;28;20469;-58
2023/09/24 09:58:26;;;;;;;2.33;1.17;;;21.90;64.60;;;;;;5073892;28;20494;-58
2023/09/24 10:00:53;;;;;;;2.83;1.00;;;22.30;62.40;;;;;;5074126;28;20465;-58
2023/09/24 10:03:21;;;;;;;2.00;0.70;;;22.70;59.40;;;;;;5074159;28;20969;-58
2023/09/24 10:05:49;;;;;;;2.67;1.27;;;23.00;58.60;;;;;;5074233;28;20969;-58
2023/09/24 10:08:45;;;;;;;1.33;0.97;;;23.40;57.00;;;;;;5075444;28;20504;-58
2023/09/24 10:11:33;;;;;;;1.63;0.90;;;23.80;55.50;;;;;;5073685;28;20484;-58
2023/09/24 10:14:03;;;;;;;1.37;1.17;;;24.30;53.60;;;;;;5072445;28;20440;-56
2023/09/24 10:16:32;;;;;;;16.77;1.60;;;24.60;50.50;;;;;;5074310;28;20484;-57
2023/09/24 10:19:00;;;;;;;1.10;0.73;;;25.00;50.00;;;;;;5074060;28;20504;-55
2023/09/24 10:21:32;;;;;;;1.73;0.87;;;25.30;47.80;;;;;;5074182;28;20437;-56
2023/09/24 10:23:59;;;;;;;3.70;1.33;;;25.70;46.90;;;;;;5073813;28;20464;-56
2023/09/24 10:26:48;;;;;;;2.83;1.13;;;26.00;46.50;;;;;;5074122;28;20459;-56
2023/09/24 10:29:18;;;;;;;5.40;1.20;;;26.30;45.00;;;;;;5069728;28;20469;-56
2023/09/24 10:32:15;;;;;;;1.57;1.10;;;26.60;44.40;;;;;;5075302;28;20487;-56
2023/09/24 10:35:10;;;;;;;3.67;1.40;;;26.90;43.10;;;;;;5076659;28;20428;-56
2023/09/24 10:37:55;;;;;;;3.60;1.07;;;26.80;42.50;;;;;;5074453;28;20432;-56
2023/09/24 10:40:26;;;;;;;3.10;0.90;;;27.20;41.90;;;;;;5074205;28;20457;-56
2023/09/24 10:43:20;;;;;;;2.37;1.00;;;27.50;41.10;;;;;;5073658;28;21005;-56
2023/09/24 10:45:49;;;;;;;3.00;0.90;;;28.10;40.30;;;;;;5073701;28;20923;-56
2023/09/24 10:48:16;;;;;;;1.43;0.97;;;28.50;38.40;;;;;;5073780;28;20441;-56
2023/09/24 10:50:44;;;;;;;2.80;1.00;;;28.90;37.60;;;;;;5073622;28;20484;-56
2023/09/24 10:53:11;;;;;;;0.80;0.80;;;29.30;36.10;;;;;;5073773;28;20479;-56
2023/09/24 10:55:40;;;;;;;2.63;1.10;;;29.70;35.90;;;;;;5074001;28;20882;-56
2023/09/24 10:58:14;;;;;;;2.00;1.00;;;30.10;35.40;;;;;;5073779;28;20452;-56
2023/09/24 11:00:42;;;;;;;1.63;1.00;;;30.50;34.10;;;;;;5073666;28;20456;-56
2023/09/24 11:03:12;;;;;;;1.40;0.87;;;30.70;32.80;;;;;;5073634;28;20542;-56
2023/09/24 11:05:44;;;;;;;2.23;1.00;;;30.30;31.80;;;;;;5073647;28;20428;-56
2023/09/24 11:08:12;;;;;;;1.53;1.00;;;30.20;33.10;;;;;;5073456;28;20894;-56
2023/09/24 11:10:39;;;;;;;2.53;0.83;;;30.40;33.10;;;;;;5073148;28;20981;-56
2023/09/24 11:13:07;;;;;;;2.90;1.20;;;30.80;33.80;;;;;;5073482;28;20443;-56
2023/09/24 11:15:35;;;;;;;2.07;1.10;;;31.10;31.80;;;;;;5073981;28;20452;-56
2023/09/24 11:18:03;;;;;;;1.70;1.03;;;31.40;31.90;;;;;;5073462;28;20472;-56
2023/09/24 11:20:33;;;;;;;1.90;1.03;;;31.70;32.20;;;;;;5072994;28;20460;-56
2023/09/24 11:23:01;;;;;;;3.50;1.13;;;32.30;30.90;;;;;;5073628;28;20483;-56
2023/09/24 11:25:28;;;;;;;1.63;0.80;;;32.60;29.80;;;;;;5073139;28;20451;-56
2023/09/24 11:27:56;;;;;;;3.33;1.10;;;32.60;29.50;;;;;;5073576;28;20446;-56
2023/09/24 11:30:26;;;;;;;1.53;0.80;;;32.70;29.40;;;;;;5073067;28;21008;-56
2023/09/24 11:32:53;;;;;;;1.27;1.10;;;32.70;29.50;;;;;;5073481;28;20427;-56
2023/09/24 11:35:22;;;;;;;2.80;1.20;;;32.80;29.40;;;;;;5072723;28;20487;-56
2023/09/24 11:37:52;;;;;;;2.17;1.03;;;33.10;29.70;;;;;;5073324;28;20440;-56
2023/09/24 11:40:24;;;;;;;2.53;1.40;;;33.50;28.80;;;;;;5073483;28;20471;-56
2023/09/24 11:42:51;;;;;;;2.83;1.20;;;33.70;27.80;;;;;;5072748;28;20444;-56
2023/09/24 11:45:39;;;;;;;2.13;1.27;;;33.90;28.70;;;;;;5073241;28;20888;-56
2023/09/24 11:48:07;;;;;;;2.03;1.20;;;34.40;28.90;;;;;;5072984;28;20420;-56
2023/09/24 11:50:35;;;;;;;1.77;1.10;;;35.00;27.10;;;;;;5076732;28;20488;-56
2023/09/24 11:53:04;;;;;;;2.37;1.27;;;34.80;26.10;;;;;;5077665;28;20451;-56
2023/09/24 11:55:31;;;;;;;2.30;1.30;;;34.40;27.40;;;;;;5077114;28;20444;-55
2023/09/24 11:57:58;;;;;;;2.10;1.20;;;34.00;26.80;;;;;;5076972;28;20446;-55
2023/09/24 12:00:25;;;;;;;2.10;1.10;;;33.70;27.40;;;;;;5076785;28;20466;-56
2023/09/24 12:02:52;;;;;;;2.70;1.20;;;33.70;27.70;;;;;;5077013;28;20471;-56
2023/09/24 12:05:19;;;;;;;3.13;1.53;;;33.80;27.50;;;;;;5076294;28;20895;-56
2023/09/24 12:07:46;;;;;;;5.40;1.13;;;34.00;27.20;;;;;;5076577;28;20447;-56
2023/09/24 12:10:14;;;;;;;3.83;1.13;;;34.00;26.50;;;;;;5076473;28;20484;-56
2023/09/24 12:12:40;;;;;;;2.10;1.13;;;34.00;27.10;;;;;;5076497;28;20976;-56
2023/09/24 12:15:08;;;;;;;1.10;1.00;;;34.00;26.30;;;;;;5076548;28;20450;-56
2023/09/24 12:17:34;;;;;;;4.20;0.80;;;34.30;26.90;;;;;;5076520;28;20887;-56
2023/09/24 12:20:02;;;;;;;1.33;0.87;;;34.90;25.90;;;;;;5076590;28;20466;-56
2023/09/24 12:22:28;;;;;;;2.00;0.80;;;34.90;25.10;;;;;;5076580;28;20448;-56
2023/09/24 12:24:57;;;;;;;1.20;0.90;;;35.00;25.40;;;;;;5076189;28;20451;-56
2023/09/24 12:27:28;;;;;;;4.13;1.00;;;35.20;24.50;;;;;;5076546;28;20450;-56
2023/09/24 12:29:55;;;;;;;3.47;1.37;;;35.60;24.60;;;;;;5076478;28;20323;-56
2023/09/24 12:32:23;;;;;;;1.07;0.93;;;36.00;23.90;;;;;;5076494;28;20218;-56
2023/09/24 12:34:50;;;;;;;4.17;1.30;;;36.30;23.50;;;;;;5076445;28;20252;-56
2023/09/24 12:37:17;;;;;;;1.10;1.00;;;37.00;22.70;;;;;;5076396;28;20202;-56
2023/09/24 12:39:44;;;;;;;2.00;1.00;;;37.50;22.30;;;;;;5075843;28;20715;-57
2023/09/24 12:42:09;;;;;;;3.38;1.58;;;38.00;21.50;;;;;;5075925;28;20194;-56
2023/09/24 12:44:38;;;;;;;2.55;1.00;;;38.60;21.60;;;;;;5076041;28;20201;-57
2023/09/24 12:47:04;;;;;;;1.73;1.10;;;39.10;20.40;;;;;;5076338;28;20233;-57
2023/09/24 12:49:31;;;;;;;2.40;1.40;;;39.60;20.30;;;;;;5075966;28;20317;-57
2023/09/24 12:51:58;;;;;;;1.85;0.75;;;39.70;20.00;;;;;;5075876;28;20233;-56